»·PEaware :: N973SE KSBP-KOXR

N973SE :: KSBP-KOXR

FLIGHT INFORMATION

Flight Status: Arrived
Operator: Privately registered:
United States
More flights under this callsign
Pilot: Stig E. (4778)
Aircraft: CESSNA 310
(C310)
More flights by this aircraft type
Origin: KSBP San Luis Co Regl
United States
Destination: KOXR Oxnard
United States
More flights between these airports :: More routes between these airports
Route: MISHI FLW GMN V299 FIM
File this flight plan on PilotEdge
Remarks:
Altitude:
(Current/Filed)
13,500ft
Speed:
(Current/Filed)
170kts
Departed: 21-Jan-19 11:44 PM
Arrived: 22-Jan-19 12:46 AM
Distance/Time
Traveled:
94nm/1:02
Distance/Time
To Go:
Arrived

Flight Plot

Page will automatically refresh every two minutes.

Flight plan parsing failed; only flown route is shown


Map Options




Map Legend


Flown Route
Filed Route
Departure Airport
Arrival Airport
Navaid (VOR, NDB)
Fix

Horizontal Profiles

Position Reports

Time Latitude Longitude Heading Altitude Ground
Speed
21-Jan-19 23:33 35.238241 -120.639983 308 215ft 0kts
21-Jan-19 23:34 35.238241 -120.639983 308 215ft 0kts
21-Jan-19 23:35 35.238241 -120.639983 308 215ft 0kts
21-Jan-19 23:36 35.238241 -120.639983 308 215ft 0kts
21-Jan-19 23:37 35.238241 -120.639983 308 215ft 0kts
21-Jan-19 23:38 35.238241 -120.639983 308 215ft 0kts
21-Jan-19 23:39 35.238241 -120.639983 308 215ft 0kts
21-Jan-19 23:40 35.238241 -120.639983 308 215ft 0kts
21-Jan-19 23:40 35.237702 -120.639754 121 216ft 14kts
21-Jan-19 23:42 35.234145 -120.633496 123 216ft 17kts
21-Jan-19 23:42 35.232829 -120.632988 284 215ft 9kts
21-Jan-19 23:43 35.247908 -120.660287 304 811ft 147kts
21-Jan-19 23:45 35.240592 -120.699516 159 1996ft 156kts
21-Jan-19 23:45 35.219598 -120.663477 119 2842ft 162kts
21-Jan-19 23:46 35.200379 -120.612557 112 3851ft 167kts
21-Jan-19 23:48 35.179656 -120.550128 114 5028ft 172kts
21-Jan-19 23:48 35.158656 -120.508261 123 5873ft 175kts
21-Jan-19 23:49 35.129995 -120.459180 111 6893ft 177kts
21-Jan-19 23:50 35.130026 -120.401809 84 7930ft 172kts
21-Jan-19 23:51 35.126862 -120.342641 86 8960ft 173kts
21-Jan-19 23:52 35.122893 -120.283726 85 9983ft 172kts
21-Jan-19 23:53 35.118880 -120.224996 84 11011ft 172kts
21-Jan-19 23:54 35.114870 -120.166724 83 12036ft 172kts
21-Jan-19 23:55 35.110824 -120.108405 82 13064ft 172kts
21-Jan-19 23:56 35.106856 -120.046872 82 13483ft 198kts
21-Jan-19 23:57 35.102164 -119.976745 84 13472ft 211kts
21-Jan-19 23:58 35.097120 -119.905354 84 13466ft 209kts
21-Jan-19 23:59 35.085788 -119.834784 99 13462ft 220kts
22-Jan-19 00:00 35.066017 -119.767070 98 13459ft 219kts
22-Jan-19 00:02 35.042880 -119.685934 98 13470ft 214kts
22-Jan-19 00:02 35.026573 -119.628616 98 13479ft 213kts
22-Jan-19 00:03 35.007007 -119.559938 97 13483ft 214kts
22-Jan-19 00:04 34.987163 -119.490452 97 13482ft 216kts
22-Jan-19 00:05 34.967259 -119.421042 96 13466ft 214kts
22-Jan-19 00:06 34.947678 -119.352752 95 13005ft 212kts
22-Jan-19 00:07 34.928042 -119.284481 96 12548ft 212kts
22-Jan-19 00:09 34.904982 -119.204542 95 12017ft 212kts
22-Jan-19 00:09 34.888537 -119.147640 95 11590ft 212kts
22-Jan-19 00:10 34.869353 -119.081492 95 11508ft 205kts
22-Jan-19 00:11 34.849822 -119.014031 96 11492ft 211kts
22-Jan-19 00:12 34.830164 -118.946471 99 11492ft 208kts
22-Jan-19 00:13 34.810865 -118.880282 100 11482ft 204kts
22-Jan-19 00:14 34.760855 -118.860481 186 11475ft 219kts
22-Jan-19 00:15 34.701447 -118.865261 182 11300ft 211kts
22-Jan-19 00:16 34.642182 -118.868238 182 10795ft 213kts
22-Jan-19 00:17 34.582773 -118.871011 181 10289ft 212kts
22-Jan-19 00:18 34.523941 -118.873699 181 9786ft 211kts
22-Jan-19 00:19 34.465758 -118.876282 180 9462ft 201kts
22-Jan-19 00:20 34.411379 -118.878700 180 9462ft 192kts
22-Jan-19 00:21 34.358129 -118.884267 216 9258ft 198kts
22-Jan-19 00:22 34.328700 -118.939689 246 8787ft 199kts
22-Jan-19 00:23 34.300564 -118.998725 247 8296ft 203kts
22-Jan-19 00:24 34.280120 -119.041479 248 7888ft 196kts
22-Jan-19 00:25 34.260922 -119.081716 248 7189ft 194kts
22-Jan-19 00:26 34.242974 -119.137767 310 6199ft 159kts
22-Jan-19 00:27 34.275820 -119.124643 39 5227ft 148kts
22-Jan-19 00:28 34.298245 -119.090914 85 4320ft 161kts
22-Jan-19 00:29 34.298245 -119.090914 85 4320ft 161kts
22-Jan-19 00:30 34.298245 -119.090914 85 4320ft 161kts
22-Jan-19 00:31 34.298245 -119.090914 85 4320ft 161kts
22-Jan-19 00:33 34.298245 -119.090914 85 4320ft 161kts
22-Jan-19 00:33 34.298245 -119.090914 85 4320ft 161kts
22-Jan-19 00:34 34.295591 -119.043839 89 3423ft 161kts
22-Jan-19 00:35 34.293228 -118.995224 88 3205ft 129kts
22-Jan-19 00:36 34.288887 -118.953683 126 3210ft 129kts
22-Jan-19 00:37 34.255636 -118.962817 210 3211ft 129kts
22-Jan-19 00:38 34.226556 -118.984198 210 3208ft 117kts
22-Jan-19 00:39 34.200221 -119.005934 250 3117ft 113kts
22-Jan-19 00:40 34.199054 -119.043464 274 2610ft 114kts
22-Jan-19 00:41 34.199445 -119.082298 273 1982ft 115kts
22-Jan-19 00:42 34.199860 -119.120968 273 1350ft 114kts
22-Jan-19 00:43 34.200250 -119.157136 274 763ft 98kts
22-Jan-19 00:45 34.200648 -119.194545 274 149ft 90kts
22-Jan-19 00:45 34.199474 -119.206974 173 39ft 11kts
22-Jan-19 00:46 34.198914 -119.206239 84 40ft 0kts

Navigation Log

Ident Type
Flight plan parsing failed, navigation log unavailable